sensor_id;sensor_type;location;lat;lon;timestamp;P1;durP1;ratioP1;P2;durP2;ratioP2
6259;SDS011;3163;51.516;4.000;2023-06-22T00:01:59;0.93;;;0.93;;
6259;SDS011;3163;51.516;4.000;2023-06-22T00:04:25;1.15;;;1.05;;
6259;SDS011;3163;51.516;4.000;2023-06-22T00:06:51;1.00;;;0.85;;
6259;SDS011;3163;51.516;4.000;2023-06-22T00:09:17;1.40;;;1.30;;
6259;SDS011;3163;51.516;4.000;2023-06-22T00:11:43;0.88;;;0.88;;
6259;SDS011;3163;51.516;4.000;2023-06-22T00:14:09;1.60;;;0.98;;
6259;SDS011;3163;51.516;4.000;2023-06-22T00:16:35;1.15;;;1.10;;
6259;SDS011;3163;51.516;4.000;2023-06-22T00:19:01;1.30;;;1.10;;
6259;SDS011;3163;51.516;4.000;2023-06-22T00:21:28;0.82;;;0.80;;
6259;SDS011;3163;51.516;4.000;2023-06-22T00:23:54;1.42;;;1.15;;
6259;SDS011;3163;51.516;4.000;2023-06-22T00:26:22;0.82;;;0.82;;
6259;SDS011;3163;51.516;4.000;2023-06-22T00:28:48;1.05;;;1.05;;
6259;SDS011;3163;51.516;4.000;2023-06-22T00:31:14;1.75;;;0.80;;
6259;SDS011;3163;51.516;4.000;2023-06-22T00:33:40;3.15;;;1.05;;
6259;SDS011;3163;51.516;4.000;2023-06-22T00:36:06;1.10;;;1.10;;
6259;SDS011;3163;51.516;4.000;2023-06-22T00:38:33;0.80;;;0.80;;
6259;SDS011;3163;51.516;4.000;2023-06-22T00:40:59;1.27;;;1.17;;
6259;SDS011;3163;51.516;4.000;2023-06-22T00:43:25;1.10;;;1.10;;
6259;SDS011;3163;51.516;4.000;2023-06-22T00:45:51;0.77;;;0.77;;
6259;SDS011;3163;51.516;4.000;2023-06-22T00:48:17;0.95;;;0.88;;
6259;SDS011;3163;51.516;4.000;2023-06-22T00:50:44;1.10;;;1.10;;
6259;SDS011;3163;51.516;4.000;2023-06-22T00:53:10;1.17;;;0.75;;
6259;SDS011;3163;51.516;4.000;2023-06-22T00:55:41;1.17;;;1.08;;
6259;SDS011;3163;51.516;4.000;2023-06-22T00:58:11;1.00;;;1.00;;
6259;SDS011;3163;51.516;4.000;2023-06-22T01:00:38;1.23;;;1.23;;
6259;SDS011;3163;51.516;4.000;2023-06-22T01:03:04;1.20;;;1.00;;
6259;SDS011;3163;51.516;4.000;2023-06-22T01:05:33;0.88;;;0.88;;
6259;SDS011;3163;51.516;4.000;2023-06-22T01:10:38;1.38;;;1.13;;
6259;SDS011;3163;51.516;4.000;2023-06-22T01:15:57;0.90;;;0.90;;
6259;SDS011;3163;51.516;4.000;2023-06-22T01:18:24;0.90;;;0.90;;
6259;SDS011;3163;51.516;4.000;2023-06-22T01:20:53;0.95;;;0.95;;
6259;SDS011;3163;51.516;4.000;2023-06-22T01:23:29;1.20;;;1.10;;
6259;SDS011;3163;51.516;4.000;2023-06-22T01:28:45;1.90;;;1.10;;
6259;SDS011;3163;51.516;4.000;2023-06-22T01:31:12;1.45;;;1.20;;
6259;SDS011;3163;51.516;4.000;2023-06-22T01:33:41;1.00;;;1.00;;
6259;SDS011;3163;51.516;4.000;2023-06-22T01:36:07;1.45;;;1.10;;
6259;SDS011;3163;51.516;4.000;2023-06-22T01:38:33;1.42;;;1.05;;
6259;SDS011;3163;51.516;4.000;2023-06-22T01:41:01;1.23;;;1.13;;
6259;SDS011;3163;51.516;4.000;2023-06-22T01:43:27;1.08;;;1.08;;
6259;SDS011;3163;51.516;4.000;2023-06-22T01:45:54;1.02;;;1.02;;
6259;SDS011;3163;51.516;4.000;2023-06-22T01:48:20;1.58;;;1.02;;
6259;SDS011;3163;51.516;4.000;2023-06-22T01:50:47;1.95;;;1.10;;
6259;SDS011;3163;51.516;4.000;2023-06-22T01:53:13;1.45;;;1.13;;
6259;SDS011;3163;51.516;4.000;2023-06-22T01:55:39;1.30;;;1.20;;
6259;SDS011;3163;51.516;4.000;2023-06-22T01:58:05;1.60;;;1.10;;
6259;SDS011;3163;51.516;4.000;2023-06-22T02:00:35;1.67;;;1.52;;
6259;SDS011;3163;51.516;4.000;2023-06-22T02:03:05;1.83;;;1.38;;
6259;SDS011;3163;51.516;4.000;2023-06-22T02:05:35;1.30;;;1.20;;
6259;SDS011;3163;51.516;4.000;2023-06-22T02:08:13;1.30;;;1.20;;
6259;SDS011;3163;51.516;4.000;2023-06-22T02:10:43;1.35;;;1.25;;
6259;SDS011;3163;51.516;4.000;2023-06-22T02:13:09;1.52;;;1.40;;
6259;SDS011;3163;51.516;4.000;2023-06-22T02:15:36;1.60;;;1.50;;
6259;SDS011;3163;51.516;4.000;2023-06-22T02:18:02;1.00;;;1.00;;
6259;SDS011;3163;51.516;4.000;2023-06-22T02:20:28;1.35;;;1.20;;
6259;SDS011;3163;51.516;4.000;2023-06-22T02:22:54;1.30;;;1.20;;
6259;SDS011;3163;51.516;4.000;2023-06-22T02:25:20;1.30;;;1.20;;
6259;SDS011;3163;51.516;4.000;2023-06-22T02:27:46;1.30;;;1.20;;
6259;SDS011;3163;51.516;4.000;2023-06-22T02:30:13;2.05;;;1.70;;
6259;SDS011;3163;51.516;4.000;2023-06-22T02:32:40;1.60;;;1.50;;
6259;SDS011;3163;51.516;4.000;2023-06-22T02:35:08;1.88;;;1.27;;
6259;SDS011;3163;51.516;4.000;2023-06-22T02:37:35;1.15;;;1.15;;
6259;SDS011;3163;51.516;4.000;2023-06-22T02:40:03;1.02;;;0.90;;
6259;SDS011;3163;51.516;4.000;2023-06-22T02:42:30;1.65;;;1.50;;
6259;SDS011;3163;51.516;4.000;2023-06-22T02:44:56;1.63;;;1.45;;
6259;SDS011;3163;51.516;4.000;2023-06-22T02:47:22;1.35;;;1.25;;
6259;SDS011;3163;51.516;4.000;2023-06-22T02:49:48;1.70;;;1.50;;
6259;SDS011;3163;51.516;4.000;2023-06-22T02:52:14;1.58;;;1.48;;
6259;SDS011;3163;51.516;4.000;2023-06-22T02:54:40;1.67;;;1.58;;
6259;SDS011;3163;51.516;4.000;2023-06-22T02:57:06;1.48;;;1.38;;
6259;SDS011;3163;51.516;4.000;2023-06-22T02:59:41;1.30;;;1.30;;
6259;SDS011;3163;51.516;4.000;2023-06-22T03:02:08;1.48;;;1.38;;
6259;SDS011;3163;51.516;4.000;2023-06-22T03:04:35;1.60;;;1.50;;
6259;SDS011;3163;51.516;4.000;2023-06-22T03:07:01;1.48;;;1.20;;
6259;SDS011;3163;51.516;4.000;2023-06-22T03:09:27;2.15;;;1.50;;
6259;SDS011;3163;51.516;4.000;2023-06-22T03:11:56;2.00;;;1.80;;
6259;SDS011;3163;51.516;4.000;2023-06-22T03:14:22;1.27;;;1.05;;
6259;SDS011;3163;51.516;4.000;2023-06-22T03:16:48;1.65;;;1.52;;
6259;SDS011;3163;51.516;4.000;2023-06-22T03:19:14;2.75;;;1.52;;
6259;SDS011;3163;51.516;4.000;2023-06-22T03:21:41;1.92;;;1.83;;
6259;SDS011;3163;51.516;4.000;2023-06-22T03:24:07;1.40;;;1.30;;
6259;SDS011;3163;51.516;4.000;2023-06-22T03:26:34;3.72;;;1.90;;
6259;SDS011;3163;51.516;4.000;2023-06-22T03:29:00;1.42;;;1.33;;
6259;SDS011;3163;51.516;4.000;2023-06-22T03:31:26;1.75;;;1.52;;
6259;SDS011;3163;51.516;4.000;2023-06-22T03:33:52;1.90;;;1.80;;
6259;SDS011;3163;51.516;4.000;2023-06-22T03:36:18;2.20;;;1.70;;
6259;SDS011;3163;51.516;4.000;2023-06-22T03:38:47;1.63;;;1.48;;
6259;SDS011;3163;51.516;4.000;2023-06-22T03:41:13;1.58;;;1.50;;
6259;SDS011;3163;51.516;4.000;2023-06-22T03:43:39;2.10;;;1.67;;
6259;SDS011;3163;51.516;4.000;2023-06-22T03:46:05;1.60;;;1.50;;
6259;SDS011;3163;51.516;4.000;2023-06-22T03:48:31;2.80;;;2.60;;
6259;SDS011;3163;51.516;4.000;2023-06-22T03:50:58;1.58;;;1.48;;
6259;SDS011;3163;51.516;4.000;2023-06-22T03:53:25;1.73;;;1.20;;
6259;SDS011;3163;51.516;4.000;2023-06-22T03:55:51;1.40;;;1.30;;
6259;SDS011;3163;51.516;4.000;2023-06-22T03:58:18;1.60;;;1.50;;
6259;SDS011;3163;51.516;4.000;2023-06-22T04:00:45;1.67;;;1.58;;
6259;SDS011;3163;51.516;4.000;2023-06-22T04:03:11;2.78;;;1.42;;
6259;SDS011;3163;51.516;4.000;2023-06-22T04:05:38;1.63;;;1.52;;
6259;SDS011;3163;51.516;4.000;2023-06-22T04:08:04;1.67;;;1.48;;
6259;SDS011;3163;51.516;4.000;2023-06-22T04:10:30;3.00;;;2.10;;
6259;SDS011;3163;51.516;4.000;2023-06-22T04:12:56;1.67;;;1.38;;
6259;SDS011;3163;51.516;4.000;2023-06-22T04:15:22;1.20;;;1.10;;
6259;SDS011;3163;51.516;4.000;2023-06-22T04:17:48;2.97;;;1.80;;
6259;SDS011;3163;51.516;4.000;2023-06-22T04:20:14;1.60;;;1.50;;
6259;SDS011;3163;51.516;4.000;2023-06-22T04:22:40;2.42;;;1.77;;
6259;SDS011;3163;51.516;4.000;2023-06-22T04:25:07;2.85;;;1.85;;
6259;SDS011;3163;51.516;4.000;2023-06-22T04:27:33;1.77;;;1.63;;
6259;SDS011;3163;51.516;4.000;2023-06-22T04:30:05;2.75;;;1.70;;
6259;SDS011;3163;51.516;4.000;2023-06-22T04:32:32;1.83;;;1.20;;
6259;SDS011;3163;51.516;4.000;2023-06-22T04:34:58;1.60;;;1.50;;
6259;SDS011;3163;51.516;4.000;2023-06-22T04:37:27;1.70;;;1.60;;
6259;SDS011;3163;51.516;4.000;2023-06-22T04:39:53;1.60;;;1.50;;
6259;SDS011;3163;51.516;4.000;2023-06-22T04:42:19;3.83;;;2.20;;
6259;SDS011;3163;51.516;4.000;2023-06-22T04:44:45;1.50;;;1.40;;
6259;SDS011;3163;51.516;4.000;2023-06-22T04:47:11;1.35;;;1.25;;
6259;SDS011;3163;51.516;4.000;2023-06-22T04:49:37;2.47;;;1.63;;
6259;SDS011;3163;51.516;4.000;2023-06-22T04:52:05;1.83;;;1.73;;
6259;SDS011;3163;51.516;4.000;2023-06-22T04:54:32;1.52;;;1.38;;
6259;SDS011;3163;51.516;4.000;2023-06-22T04:57:01;1.98;;;1.38;;
6259;SDS011;3163;51.516;4.000;2023-06-22T04:59:28;2.92;;;1.55;;
6259;SDS011;3163;51.516;4.000;2023-06-22T05:01:55;2.20;;;1.55;;
6259;SDS011;3163;51.516;4.000;2023-06-22T05:04:22;2.10;;;1.90;;
6259;SDS011;3163;51.516;4.000;2023-06-22T05:06:52;1.98;;;1.88;;
6259;SDS011;3163;51.516;4.000;2023-06-22T05:09:18;1.20;;;1.20;;
6259;SDS011;3163;51.516;4.000;2023-06-22T05:11:45;1.92;;;1.83;;
6259;SDS011;3163;51.516;4.000;2023-06-22T05:14:11;1.90;;;1.77;;
6259;SDS011;3163;51.516;4.000;2023-06-22T05:16:37;2.50;;;1.70;;
6259;SDS011;3163;51.516;4.000;2023-06-22T05:19:03;1.60;;;1.50;;
6259;SDS011;3163;51.516;4.000;2023-06-22T05:21:30;2.30;;;1.80;;
6259;SDS011;3163;51.516;4.000;2023-06-22T05:23:57;4.35;;;2.83;;
6259;SDS011;3163;51.516;4.000;2023-06-22T05:26:34;2.10;;;1.85;;
6259;SDS011;3163;51.516;4.000;2023-06-22T05:29:00;2.10;;;2.00;;
6259;SDS011;3163;51.516;4.000;2023-06-22T05:31:27;1.50;;;1.40;;
6259;SDS011;3163;51.516;4.000;2023-06-22T05:33:53;2.30;;;1.65;;
6259;SDS011;3163;51.516;4.000;2023-06-22T05:36:20;1.55;;;1.45;;
6259;SDS011;3163;51.516;4.000;2023-06-22T05:38:50;1.85;;;1.73;;
6259;SDS011;3163;51.516;4.000;2023-06-22T05:41:16;1.23;;;1.20;;
6259;SDS011;3163;51.516;4.000;2023-06-22T05:43:42;1.70;;;1.60;;
6259;SDS011;3163;51.516;4.000;2023-06-22T05:46:08;2.00;;;1.60;;
6259;SDS011;3163;51.516;4.000;2023-06-22T05:48:34;1.60;;;1.50;;
6259;SDS011;3163;51.516;4.000;2023-06-22T05:51:00;1.73;;;1.63;;
6259;SDS011;3163;51.516;4.000;2023-06-22T05:53:26;1.63;;;1.52;;
6259;SDS011;3163;51.516;4.000;2023-06-22T05:55:52;1.73;;;1.63;;
6259;SDS011;3163;51.516;4.000;2023-06-22T05:58:18;1.73;;;1.63;;
6259;SDS011;3163;51.516;4.000;2023-06-22T06:00:44;1.70;;;1.60;;
6259;SDS011;3163;51.516;4.000;2023-06-22T06:03:12;2.17;;;2.00;;
6259;SDS011;3163;51.516;4.000;2023-06-22T06:05:42;3.38;;;1.67;;
6259;SDS011;3163;51.516;4.000;2023-06-22T06:08:08;2.25;;;1.70;;
6259;SDS011;3163;51.516;4.000;2023-06-22T06:10:36;1.60;;;1.50;;
6259;SDS011;3163;51.516;4.000;2023-06-22T06:13:02;1.70;;;1.60;;
6259;SDS011;3163;51.516;4.000;2023-06-22T06:15:29;2.00;;;1.90;;
6259;SDS011;3163;51.516;4.000;2023-06-22T06:17:55;1.60;;;1.50;;
6259;SDS011;3163;51.516;4.000;2023-06-22T06:20:22;1.40;;;1.30;;
6259;SDS011;3163;51.516;4.000;2023-06-22T06:22:48;1.52;;;1.42;;
6259;SDS011;3163;51.516;4.000;2023-06-22T06:25:14;1.90;;;1.80;;
6259;SDS011;3163;51.516;4.000;2023-06-22T06:27:44;2.38;;;1.63;;
6259;SDS011;3163;51.516;4.000;2023-06-22T06:30:11;2.25;;;1.65;;
6259;SDS011;3163;51.516;4.000;2023-06-22T06:32:37;1.88;;;1.52;;
6259;SDS011;3163;51.516;4.000;2023-06-22T06:35:07;1.75;;;1.60;;
6259;SDS011;3163;51.516;4.000;2023-06-22T06:37:38;1.35;;;1.17;;
6259;SDS011;3163;51.516;4.000;2023-06-22T06:40:04;1.65;;;1.55;;
6259;SDS011;3163;51.516;4.000;2023-06-22T06:42:35;2.10;;;1.50;;
6259;SDS011;3163;51.516;4.000;2023-06-22T06:45:02;2.08;;;1.48;;
6259;SDS011;3163;51.516;4.000;2023-06-22T06:47:28;1.92;;;1.63;;
6259;SDS011;3163;51.516;4.000;2023-06-22T06:49:54;1.52;;;1.48;;
6259;SDS011;3163;51.516;4.000;2023-06-22T06:52:20;1.45;;;1.35;;
6259;SDS011;3163;51.516;4.000;2023-06-22T06:54:46;1.80;;;1.50;;
6259;SDS011;3163;51.516;4.000;2023-06-22T06:57:12;1.70;;;1.60;;
6259;SDS011;3163;51.516;4.000;2023-06-22T06:59:40;1.45;;;1.35;;
6259;SDS011;3163;51.516;4.000;2023-06-22T07:02:06;1.30;;;1.30;;
6259;SDS011;3163;51.516;4.000;2023-06-22T07:04:32;1.77;;;1.48;;
6259;SDS011;3163;51.516;4.000;2023-06-22T07:07:00;1.70;;;1.60;;
6259;SDS011;3163;51.516;4.000;2023-06-22T07:09:26;1.70;;;1.60;;
6259;SDS011;3163;51.516;4.000;2023-06-22T07:11:53;1.75;;;1.52;;
6259;SDS011;3163;51.516;4.000;2023-06-22T07:14:19;1.98;;;1.63;;
6259;SDS011;3163;51.516;4.000;2023-06-22T07:16:45;1.52;;;1.42;;
6259;SDS011;3163;51.516;4.000;2023-06-22T07:19:11;1.50;;;1.38;;
6259;SDS011;3163;51.516;4.000;2023-06-22T07:21:38;1.88;;;1.52;;
6259;SDS011;3163;51.516;4.000;2023-06-22T07:24:07;1.55;;;1.45;;
6259;SDS011;3163;51.516;4.000;2023-06-22T07:26:33;1.42;;;1.38;;
6259;SDS011;3163;51.516;4.000;2023-06-22T07:28:59;1.92;;;1.40;;
6259;SDS011;3163;51.516;4.000;2023-06-22T07:31:26;1.60;;;1.48;;
6259;SDS011;3163;51.516;4.000;2023-06-22T07:33:52;10.10;;;5.13;;
6259;SDS011;3163;51.516;4.000;2023-06-22T07:36:18;13.20;;;7.80;;
6259;SDS011;3163;51.516;4.000;2023-06-22T07:38:44;8.07;;;7.03;;
6259;SDS011;3163;51.516;4.000;2023-06-22T07:41:10;5.07;;;4.47;;
6259;SDS011;3163;51.516;4.000;2023-06-22T07:43:36;4.95;;;4.07;;
6259;SDS011;3163;51.516;4.000;2023-06-22T07:46:03;4.80;;;3.35;;
6259;SDS011;3163;51.516;4.000;2023-06-22T07:48:29;6.85;;;4.13;;
6259;SDS011;3163;51.516;4.000;2023-06-22T07:50:55;5.13;;;3.13;;
6259;SDS011;3163;51.516;4.000;2023-06-22T07:53:21;3.20;;;2.80;;
6259;SDS011;3163;51.516;4.000;2023-06-22T07:55:48;4.07;;;3.20;;
6259;SDS011;3163;51.516;4.000;2023-06-22T07:58:14;4.10;;;2.92;;
6259;SDS011;3163;51.516;4.000;2023-06-22T08:00:40;3.17;;;2.88;;
6259;SDS011;3163;51.516;4.000;2023-06-22T08:03:06;2.70;;;2.03;;
6259;SDS011;3163;51.516;4.000;2023-06-22T08:05:32;4.97;;;2.50;;
6259;SDS011;3163;51.516;4.000;2023-06-22T08:07:58;2.10;;;1.80;;
6259;SDS011;3163;51.516;4.000;2023-06-22T08:10:25;2.10;;;1.92;;
6259;SDS011;3163;51.516;4.000;2023-06-22T08:12:51;2.30;;;2.15;;
6259;SDS011;3163;51.516;4.000;2023-06-22T08:15:17;1.95;;;1.73;;
6259;SDS011;3163;51.516;4.000;2023-06-22T08:17:43;1.77;;;1.67;;
6259;SDS011;3163;51.516;4.000;2023-06-22T08:20:10;2.40;;;1.77;;
6259;SDS011;3163;51.516;4.000;2023-06-22T08:22:37;3.13;;;1.70;;
6259;SDS011;3163;51.516;4.000;2023-06-22T08:25:03;1.90;;;1.60;;
6259;SDS011;3163;51.516;4.000;2023-06-22T08:27:30;2.10;;;1.33;;
6259;SDS011;3163;51.516;4.000;2023-06-22T08:29:59;3.05;;;1.60;;
6259;SDS011;3163;51.516;4.000;2023-06-22T08:32:27;2.35;;;1.83;;
6259;SDS011;3163;51.516;4.000;2023-06-22T08:34:53;2.78;;;1.50;;
6259;SDS011;3163;51.516;4.000;2023-06-22T08:37:20;1.83;;;1.70;;
6259;SDS011;3163;51.516;4.000;2023-06-22T08:39:47;2.40;;;1.70;;
6259;SDS011;3163;51.516;4.000;2023-06-22T08:42:13;1.67;;;1.27;;
6259;SDS011;3163;51.516;4.000;2023-06-22T08:44:39;2.10;;;1.52;;
6259;SDS011;3163;51.516;4.000;2023-06-22T08:47:05;4.07;;;1.45;;
6259;SDS011;3163;51.516;4.000;2023-06-22T08:49:31;2.15;;;1.38;;
6259;SDS011;3163;51.516;4.000;2023-06-22T08:51:57;2.22;;;1.80;;
6259;SDS011;3163;51.516;4.000;2023-06-22T08:54:23;2.00;;;1.80;;
6259;SDS011;3163;51.516;4.000;2023-06-22T08:56:49;1.52;;;1.42;;
6259;SDS011;3163;51.516;4.000;2023-06-22T08:59:15;2.05;;;1.50;;
6259;SDS011;3163;51.516;4.000;2023-06-22T09:01:41;1.40;;;1.30;;
6259;SDS011;3163;51.516;4.000;2023-06-22T09:04:10;3.30;;;2.60;;
6259;SDS011;3163;51.516;4.000;2023-06-22T09:06:37;3.90;;;2.58;;
6259;SDS011;3163;51.516;4.000;2023-06-22T09:09:09;4.10;;;2.95;;
6259;SDS011;3163;51.516;4.000;2023-06-22T09:11:35;1.88;;;1.77;;
6259;SDS011;3163;51.516;4.000;2023-06-22T09:14:01;2.28;;;1.85;;
6259;SDS011;3163;51.516;4.000;2023-06-22T09:16:28;3.50;;;1.58;;
6259;SDS011;3163;51.516;4.000;2023-06-22T09:18:55;1.50;;;1.27;;
6259;SDS011;3163;51.516;4.000;2023-06-22T09:21:21;1.63;;;1.52;;
6259;SDS011;3163;51.516;4.000;2023-06-22T09:23:47;1.40;;;1.30;;
6259;SDS011;3163;51.516;4.000;2023-06-22T09:26:16;1.60;;;1.48;;
6259;SDS011;3163;51.516;4.000;2023-06-22T09:28:42;2.80;;;1.73;;
6259;SDS011;3163;51.516;4.000;2023-06-22T09:31:08;2.13;;;1.50;;
6259;SDS011;3163;51.516;4.000;2023-06-22T09:33:34;1.35;;;1.27;;
6259;SDS011;3163;51.516;4.000;2023-06-22T09:36:01;1.30;;;1.20;;
6259;SDS011;3163;51.516;4.000;2023-06-22T09:38:27;1.50;;;1.10;;
6259;SDS011;3163;51.516;4.000;2023-06-22T09:40:53;1.40;;;1.30;;
6259;SDS011;3163;51.516;4.000;2023-06-22T09:43:19;1.63;;;1.50;;
6259;SDS011;3163;51.516;4.000;2023-06-22T09:45:45;1.42;;;1.08;;
6259;SDS011;3163;51.516;4.000;2023-06-22T09:48:11;3.05;;;1.50;;
6259;SDS011;3163;51.516;4.000;2023-06-22T09:50:37;1.30;;;1.20;;
6259;SDS011;3163;51.516;4.000;2023-06-22T09:53:03;1.15;;;1.02;;
6259;SDS011;3163;51.516;4.000;2023-06-22T09:55:29;1.20;;;1.10;;
6259;SDS011;3163;51.516;4.000;2023-06-22T09:57:55;0.80;;;0.80;;
6259;SDS011;3163;51.516;4.000;2023-06-22T10:00:21;1.48;;;1.38;;
6259;SDS011;3163;51.516;4.000;2023-06-22T10:02:47;1.75;;;1.50;;
6259;SDS011;3163;51.516;4.000;2023-06-22T10:05:13;1.27;;;1.15;;
6259;SDS011;3163;51.516;4.000;2023-06-22T10:07:39;2.28;;;1.13;;
6259;SDS011;3163;51.516;4.000;2023-06-22T10:10:08;1.20;;;1.10;;
6259;SDS011;3163;51.516;4.000;2023-06-22T10:12:34;2.65;;;1.33;;
6259;SDS011;3163;51.516;4.000;2023-06-22T10:15:00;1.35;;;1.25;;
6259;SDS011;3163;51.516;4.000;2023-06-22T10:17:26;0.95;;;0.95;;
6259;SDS011;3163;51.516;4.000;2023-06-22T10:19:52;1.08;;;1.02;;
6259;SDS011;3163;51.516;4.000;2023-06-22T10:22:18;1.70;;;1.30;;
6259;SDS011;3163;51.516;4.000;2023-06-22T10:24:44;1.85;;;1.00;;
6259;SDS011;3163;51.516;4.000;2023-06-22T10:27:11;1.40;;;1.30;;
6259;SDS011;3163;51.516;4.000;2023-06-22T10:29:37;1.30;;;1.20;;
6259;SDS011;3163;51.516;4.000;2023-06-22T10:32:03;0.93;;;0.93;;
6259;SDS011;3163;51.516;4.000;2023-06-22T10:34:29;0.90;;;0.90;;
6259;SDS011;3163;51.516;4.000;2023-06-22T10:36:55;1.88;;;1.30;;
6259;SDS011;3163;51.516;4.000;2023-06-22T10:39:21;3.13;;;1.10;;
6259;SDS011;3163;51.516;4.000;2023-06-22T10:41:47;3.17;;;1.20;;
6259;SDS011;3163;51.516;4.000;2023-06-22T10:44:13;1.40;;;1.20;;
6259;SDS011;3163;51.516;4.000;2023-06-22T10:46:39;1.10;;;1.00;;
6259;SDS011;3163;51.516;4.000;2023-06-22T10:49:05;1.85;;;1.00;;
6259;SDS011;3163;51.516;4.000;2023-06-22T10:51:31;1.38;;;1.27;;
6259;SDS011;3163;51.516;4.000;2023-06-22T10:53:58;2.15;;;1.40;;
6259;SDS011;3163;51.516;4.000;2023-06-22T10:56:24;1.80;;;1.45;;
6259;SDS011;3163;51.516;4.000;2023-06-22T10:58:50;1.55;;;1.20;;
6259;SDS011;3163;51.516;4.000;2023-06-22T11:01:16;1.40;;;1.10;;
6259;SDS011;3163;51.516;4.000;2023-06-22T11:03:42;1.30;;;1.02;;
6259;SDS011;3163;51.516;4.000;2023-06-22T11:06:08;1.00;;;1.00;;
6259;SDS011;3163;51.516;4.000;2023-06-22T11:08:34;1.95;;;1.02;;
6259;SDS011;3163;51.516;4.000;2023-06-22T11:11:00;1.20;;;1.10;;
6259;SDS011;3163;51.516;4.000;2023-06-22T11:13:26;2.90;;;1.10;;
6259;SDS011;3163;51.516;4.000;2023-06-22T11:15:52;1.17;;;1.08;;
6259;SDS011;3163;51.516;4.000;2023-06-22T11:18:18;1.05;;;1.05;;
6259;SDS011;3163;51.516;4.000;2023-06-22T11:20:44;1.55;;;1.02;;
6259;SDS011;3163;51.516;4.000;2023-06-22T11:23:10;1.02;;;0.88;;
6259;SDS011;3163;51.516;4.000;2023-06-22T11:25:38;1.00;;;1.00;;
6259;SDS011;3163;51.516;4.000;2023-06-22T11:28:04;1.00;;;1.00;;
6259;SDS011;3163;51.516;4.000;2023-06-22T11:30:30;1.10;;;1.10;;
6259;SDS011;3163;51.516;4.000;2023-06-22T11:32:58;1.15;;;1.10;;
6259;SDS011;3163;51.516;4.000;2023-06-22T11:35:24;1.20;;;0.93;;
6259;SDS011;3163;51.516;4.000;2023-06-22T11:37:50;1.38;;;0.77;;
6259;SDS011;3163;51.516;4.000;2023-06-22T11:40:16;0.80;;;0.80;;
6259;SDS011;3163;51.516;4.000;2023-06-22T11:42:42;1.92;;;1.05;;
6259;SDS011;3163;51.516;4.000;2023-06-22T11:45:09;1.30;;;1.02;;
6259;SDS011;3163;51.516;4.000;2023-06-22T11:47:35;0.93;;;0.93;;
6259;SDS011;3163;51.516;4.000;2023-06-22T11:50:02;0.80;;;0.80;;
6259;SDS011;3163;51.516;4.000;2023-06-22T11:52:28;0.90;;;0.90;;
6259;SDS011;3163;51.516;4.000;2023-06-22T11:54:54;0.98;;;0.98;;
6259;SDS011;3163;51.516;4.000;2023-06-22T11:57:20;0.98;;;0.88;;
6259;SDS011;3163;51.516;4.000;2023-06-22T11:59:46;1.00;;;1.00;;
6259;SDS011;3163;51.516;4.000;2023-06-22T12:02:12;0.95;;;0.90;;
6259;SDS011;3163;51.516;4.000;2023-06-22T12:04:38;1.15;;;1.08;;
6259;SDS011;3163;51.516;4.000;2023-06-22T12:07:04;1.38;;;1.27;;
6259;SDS011;3163;51.516;4.000;2023-06-22T12:09:30;1.02;;;1.02;;
6259;SDS011;3163;51.516;4.000;2023-06-22T12:11:56;1.15;;;1.08;;
6259;SDS011;3163;51.516;4.000;2023-06-22T12:14:22;0.95;;;0.90;;
6259;SDS011;3163;51.516;4.000;2023-06-22T12:16:48;1.75;;;1.35;;
6259;SDS011;3163;51.516;4.000;2023-06-22T12:19:14;2.10;;;1.20;;
6259;SDS011;3163;51.516;4.000;2023-06-22T12:21:40;1.00;;;0.90;;
6259;SDS011;3163;51.516;4.000;2023-06-22T12:24:10;1.48;;;1.10;;
6259;SDS011;3163;51.516;4.000;2023-06-22T12:26:36;1.10;;;1.05;;
6259;SDS011;3163;51.516;4.000;2023-06-22T12:29:02;1.30;;;1.20;;
6259;SDS011;3163;51.516;4.000;2023-06-22T12:31:28;1.40;;;0.90;;
6259;SDS011;3163;51.516;4.000;2023-06-22T12:33:54;0.95;;;0.95;;
6259;SDS011;3163;51.516;4.000;2023-06-22T12:36:20;0.90;;;0.90;;
6259;SDS011;3163;51.516;4.000;2023-06-22T12:38:46;1.10;;;1.10;;
6259;SDS011;3163;51.516;4.000;2023-06-22T12:41:12;1.90;;;1.23;;
6259;SDS011;3163;51.516;4.000;2023-06-22T12:43:38;1.08;;;1.00;;
6259;SDS011;3163;51.516;4.000;2023-06-22T12:46:04;2.00;;;1.42;;
6259;SDS011;3163;51.516;4.000;2023-06-22T12:48:30;1.30;;;1.30;;
6259;SDS011;3163;51.516;4.000;2023-06-22T12:50:56;1.25;;;1.25;;
6259;SDS011;3163;51.516;4.000;2023-06-22T12:53:22;2.63;;;2.38;;
6259;SDS011;3163;51.516;4.000;2023-06-22T12:55:48;2.40;;;2.20;;
6259;SDS011;3163;51.516;4.000;2023-06-22T12:58:14;5.50;;;3.10;;
6259;SDS011;3163;51.516;4.000;2023-06-22T13:00:41;2.47;;;2.28;;
6259;SDS011;3163;51.516;4.000;2023-06-22T13:03:07;2.80;;;2.60;;
6259;SDS011;3163;51.516;4.000;2023-06-22T13:05:33;3.67;;;2.95;;
6259;SDS011;3163;51.516;4.000;2023-06-22T13:08:01;2.22;;;2.10;;
6259;SDS011;3163;51.516;4.000;2023-06-22T13:10:27;5.03;;;2.83;;
6259;SDS011;3163;51.516;4.000;2023-06-22T13:12:54;5.63;;;3.70;;
6259;SDS011;3163;51.516;4.000;2023-06-22T13:15:25;4.40;;;3.83;;
6259;SDS011;3163;51.516;4.000;2023-06-22T13:17:51;4.80;;;3.50;;
6259;SDS011;3163;51.516;4.000;2023-06-22T13:20:17;5.15;;;3.25;;
6259;SDS011;3163;51.516;4.000;2023-06-22T13:22:43;3.67;;;2.55;;
6259;SDS011;3163;51.516;4.000;2023-06-22T13:25:09;4.28;;;2.97;;
6259;SDS011;3163;51.516;4.000;2023-06-22T13:27:38;4.80;;;2.92;;
6259;SDS011;3163;51.516;4.000;2023-06-22T13:30:04;3.05;;;2.75;;
6259;SDS011;3163;51.516;4.000;2023-06-22T13:32:30;3.67;;;2.60;;
6259;SDS011;3163;51.516;4.000;2023-06-22T13:34:56;3.90;;;3.50;;
6259;SDS011;3163;51.516;4.000;2023-06-22T13:37:22;2.92;;;2.72;;
6259;SDS011;3163;51.516;4.000;2023-06-22T13:39:48;3.25;;;2.55;;
6259;SDS011;3163;51.516;4.000;2023-06-22T13:42:14;3.50;;;2.83;;
6259;SDS011;3163;51.516;4.000;2023-06-22T13:44:40;4.60;;;3.13;;
6259;SDS011;3163;51.516;4.000;2023-06-22T13:47:06;3.47;;;2.60;;
6259;SDS011;3163;51.516;4.000;2023-06-22T13:49:33;5.28;;;2.78;;
6259;SDS011;3163;51.516;4.000;2023-06-22T13:51:59;2.17;;;1.98;;
6259;SDS011;3163;51.516;4.000;2023-06-22T13:54:25;5.00;;;2.50;;
6259;SDS011;3163;51.516;4.000;2023-06-22T13:56:51;3.60;;;2.67;;
6259;SDS011;3163;51.516;4.000;2023-06-22T13:59:17;2.70;;;2.50;;
6259;SDS011;3163;51.516;4.000;2023-06-22T14:01:44;3.22;;;2.28;;
6259;SDS011;3163;51.516;4.000;2023-06-22T14:04:10;2.08;;;1.90;;
6259;SDS011;3163;51.516;4.000;2023-06-22T14:06:37;1.65;;;1.55;;
6259;SDS011;3163;51.516;4.000;2023-06-22T14:09:04;1.90;;;1.65;;
6259;SDS011;3163;51.516;4.000;2023-06-22T14:11:30;2.25;;;1.95;;
6259;SDS011;3163;51.516;4.000;2023-06-22T14:13:55;2.20;;;2.00;;
6259;SDS011;3163;51.516;4.000;2023-06-22T14:16:21;1.77;;;1.60;;
6259;SDS011;3163;51.516;4.000;2023-06-22T14:18:48;1.90;;;1.77;;
6259;SDS011;3163;51.516;4.000;2023-06-22T14:21:14;1.90;;;1.80;;
6259;SDS011;3163;51.516;4.000;2023-06-22T14:23:40;2.10;;;1.60;;
6259;SDS011;3163;51.516;4.000;2023-06-22T14:26:06;1.88;;;1.63;;
6259;SDS011;3163;51.516;4.000;2023-06-22T14:28:32;2.35;;;1.63;;
6259;SDS011;3163;51.516;4.000;2023-06-22T14:30:58;2.00;;;1.90;;
6259;SDS011;3163;51.516;4.000;2023-06-22T14:33:24;1.83;;;1.73;;
6259;SDS011;3163;51.516;4.000;2023-06-22T14:35:50;2.60;;;1.55;;
6259;SDS011;3163;51.516;4.000;2023-06-22T14:38:16;2.67;;;2.40;;
6259;SDS011;3163;51.516;4.000;2023-06-22T14:40:42;2.35;;;2.15;;
6259;SDS011;3163;51.516;4.000;2023-06-22T14:43:08;1.98;;;1.85;;
6259;SDS011;3163;51.516;4.000;2023-06-22T14:45:34;2.70;;;2.28;;
6259;SDS011;3163;51.516;4.000;2023-06-22T14:48:00;3.42;;;2.30;;
6259;SDS011;3163;51.516;4.000;2023-06-22T14:50:26;3.00;;;2.30;;
6259;SDS011;3163;51.516;4.000;2023-06-22T14:52:52;2.63;;;2.38;;
6259;SDS011;3163;51.516;4.000;2023-06-22T14:55:18;3.10;;;2.65;;
6259;SDS011;3163;51.516;4.000;2023-06-22T14:57:44;2.65;;;2.45;;
6259;SDS011;3163;51.516;4.000;2023-06-22T15:00:10;3.92;;;3.20;;
6259;SDS011;3163;51.516;4.000;2023-06-22T15:02:36;2.80;;;2.60;;
6259;SDS011;3163;51.516;4.000;2023-06-22T15:05:02;3.05;;;2.85;;
6259;SDS011;3163;51.516;4.000;2023-06-22T15:07:28;3.17;;;2.88;;
6259;SDS011;3163;51.516;4.000;2023-06-22T15:09:54;3.40;;;3.10;;
6259;SDS011;3163;51.516;4.000;2023-06-22T15:12:20;3.35;;;2.60;;
6259;SDS011;3163;51.516;4.000;2023-06-22T15:14:46;3.35;;;2.88;;
6259;SDS011;3163;51.516;4.000;2023-06-22T15:17:12;4.85;;;2.88;;
6259;SDS011;3163;51.516;4.000;2023-06-22T15:19:39;4.72;;;3.50;;